ADDS METAR Data INFO
IDs: Format: Raw Decoded Include TAF

Data at: 0455 UTC 21 Feb 2018

KCDR 201453Z AUTO 22004KT 10SM CLR M23/M26 A3010 RMK AO2 SLP290 I3000 T12331261 53021
KCDR 201353Z AUTO 00000KT 10SM CLR M27/M29 A3007 RMK AO2 SLP285 I1000 T12671294
KCDR 201253Z AUTO 28003KT 10SM CLR M24/M27 A3004 RMK AO2 SLP271 T12441267
KCDR 201153Z AUTO 25003KT 10SM CLR M25/M27 A3003 RMK AO2 SLP266 60000 T12501267 11178 21250 53008
KCDR 201053Z AUTO 28003KT 10SM BKN060 M20/M22 A3001 RMK AO2 SLP252 T12001222
KCDR 200953Z AUTO 30003KT 10SM BKN060 OVC095 M18/M21 A3000 RMK AO2 SLP246 T11831211
KCDR 200853Z AUTO 00000KT 10SM OVC060 M18/M21 A3000 RMK AO2 SNE41 SLP245 P0000 60000 T11781206 53014
KCDR 200753Z AUTO 36005KT 8SM -SN FEW029 OVC065 M18/M21 A2998 RMK AO2 SNB27 SLP236 P0000 T11781211
KCDR 200653Z AUTO 02007KT 10SM BKN110 M18/M21 A2995 RMK AO2 PRESFR SLP228 T11781211 411391178
KCDR 200553Z AUTO 01008KT 7SM FEW045 OVC110 M18/M21 A2996 RMK AO2 SNE45 SLP229 P0000 60000 T11781206 11167 21178 50010
KCDR 200525Z AUTO 01010KT 3SM -SN OVC030 M18/M21 A2995 RMK AO2 P0000 T11781206
KCDR 200515Z AUTO 01009KT 2SM -SN OVC026 M18/M21 A2996 RMK AO2 P0000 T11781206
KCDR 200453Z AUTO 35008KT 1 1/2SM -SN OVC016 M18/M21 A2999 RMK AO2 SLP240 P0000 T11781206
KCDR 200429Z AUTO 36009KT 1SM -SN BR VV014 M18/M20 A2997 RMK AO2 P0000 T11781200
KCDR 200353Z AUTO 02008KT 1 1/4SM -SN BR OVC019 M18/M20 A2997 RMK AO2 SLP235 P0000 T11781200
KCDR 200253Z AUTO 02011KT 1SM -SN BR VV017 M18/M20 A2992 RMK AO2 SLP219 P0000 60000 T11781200 53004
KCDR 200232Z AUTO 02010KT 1 1/4SM -SN BR OVC016 M18/M20 A2991 RMK AO2 P0000 T11781200
KCDR 200215Z AUTO 03010KT 1SM -SN VV010 M17/M20 A2992 RMK AO2 P0000 T11721200
KCDR 200153Z AUTO 02011KT 1/2SM SN FZFG VV006 M17/M19 A2991 RMK AO2 SLP214 P0000 T11721194
KCDR 200140Z AUTO 02011KT 1/2SM SN FZFG VV007 M17/M19 A2992 RMK AO2 P0000 T11721194
KCDR 200121Z AUTO 02013KT 3/4SM -SN BR VV014 M17/M19 A2992 RMK AO2 P0000 T11721194
KCDR 200103Z AUTO 03012KT 1 1/4SM -SN BR OVC016 M17/M19 A2991 RMK AO2 P0000 T11721194
KCDR 200053Z AUTO 03011KT 1SM -SN BR VV013 M17/M19 A2991 RMK AO2 SLP213 P0000 T11721194
KCDR 200046Z AUTO 03010KT 1SM -SN BR VV011 M17/M19 A2992 RMK AO2 P0000 T11721194
KCDR 200032Z AUTO 01011KT 1/2SM SN FZFG VV006 M17/M19 A2993 RMK AO2 P0000 T11671189
KCDR 200019Z AUTO 02009KT 1/4SM SN FZFG VV005 M17/M19 A2992 RMK AO2 P0000 T11671189
KCDR 200003Z AUTO 01013KT 1/2SM SN VV009 M17/M19 A2992 RMK AO2 P0000 T11671194
KCDR 192353Z AUTO 01014KT 3/4SM -SN VV017 M17/M19 A2991 RMK AO2 PRESRR SLP211 P0000 60000 T11671194 11150 21167 51013
KCDR 192342Z AUTO 01010KT 1 1/4SM -SN OVC029 M17/M20 A2989 RMK AO2 P0000 T11671200
KCDR 192326Z AUTO 01012KT 2SM -SN OVC039 M17/M20 A2988 RMK AO2 P0000 T11671200
KCDR 192310Z AUTO 03011KT 1 1/2SM -SN BKN039 BKN050 OVC060 M17/M19 A2988 RMK AO2 P0000 T11671194
KCDR 192253Z AUTO 03012KT 2 1/2SM -SN FEW016 BKN049 OVC060 M17/M19 A2987 RMK AO2 SLP199 P0000 T11671194
KCDR 192231Z AUTO 03012KT 2 1/2SM -SN OVC050 M16/M19 A2987 RMK AO2 P0000 T11611194
KCDR 192153Z AUTO 03015KT 1 3/4SM -SN BKN034 OVC043 M16/M19 A2987 RMK AO2 SLP195 P0000 T11611194
KCDR 192053Z AUTO 03012KT 1 3/4SM -SN SCT037 OVC045 M16/M19 A2990 RMK AO2 SLP207 P0000 60000 T11611194 55003
KCDR 192001Z AUTO 03013KT 1 1/4SM -SN SCT027 BKN034 OVC045 M16/M19 A2988 RMK AO2 P0000 T11561189
KCDR 191953Z AUTO 03012KT 1 1/4SM -SN BKN029 BKN036 OVC045 M16/M19 A2988 RMK AO2 SLP197 P0000 T11561189
KCDR 191941Z AUTO 03013KT 1 1/4SM -SN FEW018 BKN036 OVC045 M16/M19 A2988 RMK AO2 P0000 T11561189
KCDR 191917Z AUTO 02011KT 1SM -SN FEW019 BKN029 OVC036 M16/M19 A2990 RMK AO2 P0000 T11561189
KCDR 191853Z AUTO 03013KT 1 1/2SM -SN FEW019 SCT031 OVC040 M16/M19 A2991 RMK AO2 SLP207 P0000 T11561189
KCDR 191849Z AUTO 03013KT 1 1/2SM -SN BKN035 OVC043 M16/M19 A2992 RMK AO2 P0000
KCDR 191816Z AUTO 03013KT 2SM -SN OVC045 M16/M19 A2993 RMK AO2 P0000 T11561189
KCDR 191807Z AUTO 03013KT 1 3/4SM -SN OVC045 M16/M19 A2993 RMK AO2 P0000 T11561189
KCDR 191753Z AUTO 03014KT 2SM -SN OVC047 M16/M19 A2994 RMK AO2 SLP215 P0000 60000 T11561194 11156 21167 58004